sensor_id;sensor_type;location;lat;lon;timestamp;P1;durP1;ratioP1;P2;durP2;ratioP2
69981;SDS011;57319;56.274;43.980;2022-11-04T00:01:38;1.25;;;1.08;;
69981;SDS011;57319;56.274;43.980;2022-11-04T00:04:05;1.30;;;1.30;;
69981;SDS011;57319;56.274;43.980;2022-11-04T00:06:31;1.27;;;1.20;;
69981;SDS011;57319;56.274;43.980;2022-11-04T00:08:57;1.33;;;1.33;;
69981;SDS011;57319;56.274;43.980;2022-11-04T00:11:24;1.58;;;1.17;;
69981;SDS011;57319;56.274;43.980;2022-11-04T00:14:09;1.58;;;1.48;;
69981;SDS011;57319;56.274;43.980;2022-11-04T00:16:36;1.10;;;1.10;;
69981;SDS011;57319;56.274;43.980;2022-11-04T00:19:21;1.23;;;1.23;;
69981;SDS011;57319;56.274;43.980;2022-11-04T00:21:47;1.20;;;1.20;;
69981;SDS011;57319;56.274;43.980;2022-11-04T00:24:31;1.30;;;1.30;;
69981;SDS011;57319;56.274;43.980;2022-11-04T00:27:16;2.00;;;1.40;;
69981;SDS011;57319;56.274;43.980;2022-11-04T00:30:03;1.05;;;1.05;;
69981;SDS011;57319;56.274;43.980;2022-11-04T00:32:30;1.20;;;1.20;;
69981;SDS011;57319;56.274;43.980;2022-11-04T00:35:15;1.85;;;1.75;;
69981;SDS011;57319;56.274;43.980;2022-11-04T00:37:42;1.10;;;1.10;;
69981;SDS011;57319;56.274;43.980;2022-11-04T00:40:09;3.60;;;1.30;;
69981;SDS011;57319;56.274;43.980;2022-11-04T00:42:37;4.05;;;2.20;;
69981;SDS011;57319;56.274;43.980;2022-11-04T00:45:03;1.00;;;1.00;;
69981;SDS011;57319;56.274;43.980;2022-11-04T00:47:30;0.95;;;0.95;;
69981;SDS011;57319;56.274;43.980;2022-11-04T00:49:55;2.05;;;1.20;;
69981;SDS011;57319;56.274;43.980;2022-11-04T00:52:21;1.08;;;1.08;;
69981;SDS011;57319;56.274;43.980;2022-11-04T00:54:46;3.08;;;1.20;;
69981;SDS011;57319;56.274;43.980;2022-11-04T00:57:12;1.10;;;1.10;;
69981;SDS011;57319;56.274;43.980;2022-11-04T00:59:39;1.20;;;1.20;;
69981;SDS011;57319;56.274;43.980;2022-11-04T01:02:05;6.50;;;0.93;;
69981;SDS011;57319;56.274;43.980;2022-11-04T01:04:31;1.08;;;1.05;;
69981;SDS011;57319;56.274;43.980;2022-11-04T01:06:57;1.20;;;1.20;;
69981;SDS011;57319;56.274;43.980;2022-11-04T01:09:23;1.02;;;1.02;;
69981;SDS011;57319;56.274;43.980;2022-11-04T01:11:49;1.17;;;1.17;;
69981;SDS011;57319;56.274;43.980;2022-11-04T01:14:20;1.42;;;1.42;;
69981;SDS011;57319;56.274;43.980;2022-11-04T01:16:47;1.00;;;1.00;;
69981;SDS011;57319;56.274;43.980;2022-11-04T01:19:14;1.02;;;1.02;;
69981;SDS011;57319;56.274;43.980;2022-11-04T01:21:41;1.27;;;1.27;;
69981;SDS011;57319;56.274;43.980;2022-11-04T01:24:06;0.80;;;0.80;;
69981;SDS011;57319;56.274;43.980;2022-11-04T01:26:32;1.38;;;1.30;;
69981;SDS011;57319;56.274;43.980;2022-11-04T01:28:58;1.00;;;1.00;;
69981;SDS011;57319;56.274;43.980;2022-11-04T01:31:28;1.15;;;1.15;;
69981;SDS011;57319;56.274;43.980;2022-11-04T01:33:56;1.00;;;1.00;;
69981;SDS011;57319;56.274;43.980;2022-11-04T01:36:23;1.38;;;1.27;;
69981;SDS011;57319;56.274;43.980;2022-11-04T01:38:49;1.15;;;1.15;;
69981;SDS011;57319;56.274;43.980;2022-11-04T01:41:17;1.40;;;1.30;;
69981;SDS011;57319;56.274;43.980;2022-11-04T01:46:43;6.53;;;1.35;;
69981;SDS011;57319;56.274;43.980;2022-11-04T01:49:19;1.38;;;1.30;;
69981;SDS011;57319;56.274;43.980;2022-11-04T01:52:04;1.13;;;1.13;;
69981;SDS011;57319;56.274;43.980;2022-11-04T01:54:34;1.10;;;1.10;;
69981;SDS011;57319;56.274;43.980;2022-11-04T01:57:01;1.30;;;1.30;;
69981;SDS011;57319;56.274;43.980;2022-11-04T01:59:32;0.90;;;0.90;;
69981;SDS011;57319;56.274;43.980;2022-11-04T02:02:01;2.75;;;1.08;;
69981;SDS011;57319;56.274;43.980;2022-11-04T02:04:28;2.88;;;1.20;;
69981;SDS011;57319;56.274;43.980;2022-11-04T02:06:55;1.23;;;1.17;;
69981;SDS011;57319;56.274;43.980;2022-11-04T02:09:25;2.33;;;1.27;;
69981;SDS011;57319;56.274;43.980;2022-11-04T02:11:53;1.40;;;1.40;;
69981;SDS011;57319;56.274;43.980;2022-11-04T02:14:37;1.30;;;1.30;;
69981;SDS011;57319;56.274;43.980;2022-11-04T02:19:38;2.70;;;1.00;;
69981;SDS011;57319;56.274;43.980;2022-11-04T02:30:43;1.10;;;1.10;;
69981;SDS011;57319;56.274;43.980;2022-11-04T02:35:59;6.38;;;1.17;;
69981;SDS011;57319;56.274;43.980;2022-11-04T02:38:40;1.20;;;1.20;;
69981;SDS011;57319;56.274;43.980;2022-11-04T02:44:20;6.35;;;1.17;;
69981;SDS011;57319;56.274;43.980;2022-11-04T02:49:37;3.65;;;1.30;;
69981;SDS011;57319;56.274;43.980;2022-11-04T02:52:11;2.92;;;1.00;;
69981;SDS011;57319;56.274;43.980;2022-11-04T02:54:46;1.42;;;1.33;;
69981;SDS011;57319;56.274;43.980;2022-11-04T02:57:21;10.68;;;1.40;;
69981;SDS011;57319;56.274;43.980;2022-11-04T02:59:52;3.30;;;1.20;;
69981;SDS011;57319;56.274;43.980;2022-11-04T03:02:32;1.20;;;1.20;;
69981;SDS011;57319;56.274;43.980;2022-11-04T03:05:02;1.10;;;1.10;;
69981;SDS011;57319;56.274;43.980;2022-11-04T03:07:31;1.10;;;1.10;;
69981;SDS011;57319;56.274;43.980;2022-11-04T03:10:01;1.25;;;1.25;;
69981;SDS011;57319;56.274;43.980;2022-11-04T03:12:34;5.40;;;1.52;;
69981;SDS011;57319;56.274;43.980;2022-11-04T03:15:08;1.40;;;1.40;;
69981;SDS011;57319;56.274;43.980;2022-11-04T03:17:41;2.58;;;1.10;;
69981;SDS011;57319;56.274;43.980;2022-11-04T03:20:19;1.20;;;1.20;;
69981;SDS011;57319;56.274;43.980;2022-11-04T03:22:48;1.13;;;1.13;;
69981;SDS011;57319;56.274;43.980;2022-11-04T03:25:14;1.65;;;1.30;;
69981;SDS011;57319;56.274;43.980;2022-11-04T03:27:43;1.65;;;1.02;;
69981;SDS011;57319;56.274;43.980;2022-11-04T03:30:21;7.50;;;1.25;;
69981;SDS011;57319;56.274;43.980;2022-11-04T03:35:34;7.60;;;1.83;;
69981;SDS011;57319;56.274;43.980;2022-11-04T03:38:00;1.30;;;1.17;;
69981;SDS011;57319;56.274;43.980;2022-11-04T03:40:26;5.43;;;1.25;;
69981;SDS011;57319;56.274;43.980;2022-11-04T03:42:53;3.25;;;1.20;;
69981;SDS011;57319;56.274;43.980;2022-11-04T03:45:25;8.93;;;0.98;;
69981;SDS011;57319;56.274;43.980;2022-11-04T03:47:51;2.15;;;1.00;;
69981;SDS011;57319;56.274;43.980;2022-11-04T03:50:28;5.28;;;1.13;;
69981;SDS011;57319;56.274;43.980;2022-11-04T03:52:58;2.83;;;1.15;;
69981;SDS011;57319;56.274;43.980;2022-11-04T03:55:27;1.00;;;1.00;;
69981;SDS011;57319;56.274;43.980;2022-11-04T03:58:29;5.07;;;1.10;;
69981;SDS011;57319;56.274;43.980;2022-11-04T04:06:39;12.00;;;1.40;;
69981;SDS011;57319;56.274;43.980;2022-11-04T04:09:10;7.13;;;1.65;;
69981;SDS011;57319;56.274;43.980;2022-11-04T04:11:45;1.20;;;1.15;;
69981;SDS011;57319;56.274;43.980;2022-11-04T04:14:21;1.25;;;1.25;;
69981;SDS011;57319;56.274;43.980;2022-11-04T04:17:05;1.23;;;1.20;;
69981;SDS011;57319;56.274;43.980;2022-11-04T04:19:37;3.97;;;1.35;;
69981;SDS011;57319;56.274;43.980;2022-11-04T04:22:06;8.18;;;1.25;;
69981;SDS011;57319;56.274;43.980;2022-11-04T04:24:39;3.47;;;1.40;;
69981;SDS011;57319;56.274;43.980;2022-11-04T04:27:28;1.95;;;1.42;;
69981;SDS011;57319;56.274;43.980;2022-11-04T04:30:02;2.55;;;1.30;;
69981;SDS011;57319;56.274;43.980;2022-11-04T04:33:17;8.00;;;2.38;;
69981;SDS011;57319;56.274;43.980;2022-11-04T04:35:28;13.35;;;1.55;;
69981;SDS011;57319;56.274;43.980;2022-11-04T04:38:29;4.13;;;1.10;;
69981;SDS011;57319;56.274;43.980;2022-11-04T04:44:08;5.47;;;1.20;;
69981;SDS011;57319;56.274;43.980;2022-11-04T04:46:58;5.15;;;1.60;;
69981;SDS011;57319;56.274;43.980;2022-11-04T04:49:26;1.98;;;1.20;;
69981;SDS011;57319;56.274;43.980;2022-11-04T04:51:59;11.82;;;1.30;;
69981;SDS011;57319;56.274;43.980;2022-11-04T04:54:27;1.35;;;1.35;;
69981;SDS011;57319;56.274;43.980;2022-11-04T04:56:53;5.28;;;1.17;;
69981;SDS011;57319;56.274;43.980;2022-11-04T04:59:18;11.43;;;1.40;;
69981;SDS011;57319;56.274;43.980;2022-11-04T05:01:44;14.77;;;1.17;;
69981;SDS011;57319;56.274;43.980;2022-11-04T05:04:09;5.22;;;1.30;;
69981;SDS011;57319;56.274;43.980;2022-11-04T05:06:35;1.85;;;1.10;;
69981;SDS011;57319;56.274;43.980;2022-11-04T05:09:01;4.05;;;1.17;;
69981;SDS011;57319;56.274;43.980;2022-11-04T05:11:27;2.92;;;0.93;;
69981;SDS011;57319;56.274;43.980;2022-11-04T05:13:52;2.97;;;1.08;;
69981;SDS011;57319;56.274;43.980;2022-11-04T05:16:18;9.18;;;1.50;;
69981;SDS011;57319;56.274;43.980;2022-11-04T05:18:44;2.08;;;1.02;;
69981;SDS011;57319;56.274;43.980;2022-11-04T05:21:11;4.25;;;1.23;;
69981;SDS011;57319;56.274;43.980;2022-11-04T05:23:38;2.10;;;1.00;;
69981;SDS011;57319;56.274;43.980;2022-11-04T05:26:04;3.67;;;1.35;;
69981;SDS011;57319;56.274;43.980;2022-11-04T05:28:30;3.50;;;1.20;;
69981;SDS011;57319;56.274;43.980;2022-11-04T05:30:56;2.83;;;1.20;;
69981;SDS011;57319;56.274;43.980;2022-11-04T05:33:22;1.30;;;1.30;;
69981;SDS011;57319;56.274;43.980;2022-11-04T05:35:48;8.23;;;1.30;;
69981;SDS011;57319;56.274;43.980;2022-11-04T05:38:13;8.02;;;1.30;;
69981;SDS011;57319;56.274;43.980;2022-11-04T05:40:39;4.95;;;1.30;;
69981;SDS011;57319;56.274;43.980;2022-11-04T05:43:04;2.17;;;1.20;;
69981;SDS011;57319;56.274;43.980;2022-11-04T05:45:30;4.82;;;1.35;;
69981;SDS011;57319;56.274;43.980;2022-11-04T05:47:59;5.70;;;1.50;;
69981;SDS011;57319;56.274;43.980;2022-11-04T05:50:26;2.05;;;1.27;;
69981;SDS011;57319;56.274;43.980;2022-11-04T05:52:56;2.88;;;1.13;;
69981;SDS011;57319;56.274;43.980;2022-11-04T05:55:22;4.50;;;1.23;;
69981;SDS011;57319;56.274;43.980;2022-11-04T05:57:49;3.95;;;1.10;;
69981;SDS011;57319;56.274;43.980;2022-11-04T06:00:14;2.90;;;1.30;;
69981;SDS011;57319;56.274;43.980;2022-11-04T06:02:40;5.30;;;1.20;;
69981;SDS011;57319;56.274;43.980;2022-11-04T06:05:06;1.77;;;1.35;;
69981;SDS011;57319;56.274;43.980;2022-11-04T06:07:32;1.30;;;1.30;;
69981;SDS011;57319;56.274;43.980;2022-11-04T06:09:58;5.78;;;1.50;;
69981;SDS011;57319;56.274;43.980;2022-11-04T06:12:24;5.07;;;1.42;;
69981;SDS011;57319;56.274;43.980;2022-11-04T06:14:50;2.58;;;1.30;;
69981;SDS011;57319;56.274;43.980;2022-11-04T06:17:17;4.05;;;1.50;;
69981;SDS011;57319;56.274;43.980;2022-11-04T06:19:44;4.10;;;1.77;;
69981;SDS011;57319;56.274;43.980;2022-11-04T06:22:10;3.55;;;1.42;;
69981;SDS011;57319;56.274;43.980;2022-11-04T06:24:37;3.92;;;1.40;;
69981;SDS011;57319;56.274;43.980;2022-11-04T06:27:03;5.25;;;1.63;;
69981;SDS011;57319;56.274;43.980;2022-11-04T06:29:29;5.38;;;1.40;;
69981;SDS011;57319;56.274;43.980;2022-11-04T06:31:55;17.17;;;1.58;;
69981;SDS011;57319;56.274;43.980;2022-11-04T06:34:20;7.45;;;1.38;;
69981;SDS011;57319;56.274;43.980;2022-11-04T06:36:47;5.88;;;1.30;;
69981;SDS011;57319;56.274;43.980;2022-11-04T06:39:13;12.88;;;1.88;;
69981;SDS011;57319;56.274;43.980;2022-11-04T06:41:39;14.40;;;1.65;;
69981;SDS011;57319;56.274;43.980;2022-11-04T06:44:05;20.90;;;2.00;;
69981;SDS011;57319;56.274;43.980;2022-11-04T06:46:33;6.22;;;1.70;;
69981;SDS011;57319;56.274;43.980;2022-11-04T06:49:04;1.25;;;1.25;;
69981;SDS011;57319;56.274;43.980;2022-11-04T06:51:31;3.22;;;1.60;;
69981;SDS011;57319;56.274;43.980;2022-11-04T06:53:58;3.67;;;1.70;;
69981;SDS011;57319;56.274;43.980;2022-11-04T06:56:23;11.38;;;1.70;;
69981;SDS011;57319;56.274;43.980;2022-11-04T06:58:50;5.68;;;1.67;;
69981;SDS011;57319;56.274;43.980;2022-11-04T07:01:17;3.58;;;1.40;;
69981;SDS011;57319;56.274;43.980;2022-11-04T07:03:43;9.05;;;2.00;;
69981;SDS011;57319;56.274;43.980;2022-11-04T07:06:17;13.80;;;1.90;;
69981;SDS011;57319;56.274;43.980;2022-11-04T07:08:43;9.30;;;1.92;;
69981;SDS011;57319;56.274;43.980;2022-11-04T07:11:09;17.45;;;2.40;;
69981;SDS011;57319;56.274;43.980;2022-11-04T07:13:36;2.90;;;1.70;;
69981;SDS011;57319;56.274;43.980;2022-11-04T07:16:04;8.45;;;1.75;;
69981;SDS011;57319;56.274;43.980;2022-11-04T07:18:31;12.27;;;1.90;;
69981;SDS011;57319;56.274;43.980;2022-11-04T07:20:57;10.38;;;2.35;;
69981;SDS011;57319;56.274;43.980;2022-11-04T07:23:23;5.45;;;2.33;;
69981;SDS011;57319;56.274;43.980;2022-11-04T07:25:48;2.83;;;1.70;;
69981;SDS011;57319;56.274;43.980;2022-11-04T07:28:14;17.33;;;2.83;;
69981;SDS011;57319;56.274;43.980;2022-11-04T07:30:40;2.03;;;1.92;;
69981;SDS011;57319;56.274;43.980;2022-11-04T07:33:07;2.10;;;1.95;;
69981;SDS011;57319;56.274;43.980;2022-11-04T07:35:32;2.00;;;1.88;;
69981;SDS011;57319;56.274;43.980;2022-11-04T07:37:58;5.93;;;2.10;;
69981;SDS011;57319;56.274;43.980;2022-11-04T07:40:25;8.88;;;3.20;;
69981;SDS011;57319;56.274;43.980;2022-11-04T07:42:50;9.07;;;2.42;;
69981;SDS011;57319;56.274;43.980;2022-11-04T07:45:16;4.20;;;2.30;;
69981;SDS011;57319;56.274;43.980;2022-11-04T07:47:42;15.43;;;2.28;;
69981;SDS011;57319;56.274;43.980;2022-11-04T07:50:08;2.75;;;2.10;;
69981;SDS011;57319;56.274;43.980;2022-11-04T07:52:33;18.10;;;2.10;;
69981;SDS011;57319;56.274;43.980;2022-11-04T07:54:59;4.43;;;2.00;;
69981;SDS011;57319;56.274;43.980;2022-11-04T07:57:25;2.20;;;1.92;;
69981;SDS011;57319;56.274;43.980;2022-11-04T07:59:50;2.20;;;2.00;;
69981;SDS011;57319;56.274;43.980;2022-11-04T08:02:16;1.58;;;1.45;;
69981;SDS011;57319;56.274;43.980;2022-11-04T08:04:42;2.00;;;1.90;;
69981;SDS011;57319;56.274;43.980;2022-11-04T08:07:08;1.73;;;1.63;;
69981;SDS011;57319;56.274;43.980;2022-11-04T08:09:34;1.70;;;1.42;;
69981;SDS011;57319;56.274;43.980;2022-11-04T08:12:01;1.60;;;1.50;;
69981;SDS011;57319;56.274;43.980;2022-11-04T08:14:27;1.58;;;1.48;;
69981;SDS011;57319;56.274;43.980;2022-11-04T08:16:53;2.08;;;1.98;;
69981;SDS011;57319;56.274;43.980;2022-11-04T08:19:18;4.85;;;1.80;;
69981;SDS011;57319;56.274;43.980;2022-11-04T08:21:44;1.77;;;1.67;;
69981;SDS011;57319;56.274;43.980;2022-11-04T08:24:10;4.85;;;1.83;;
69981;SDS011;57319;56.274;43.980;2022-11-04T08:26:35;1.83;;;1.50;;
69981;SDS011;57319;56.274;43.980;2022-11-04T08:29:04;1.63;;;1.52;;
69981;SDS011;57319;56.274;43.980;2022-11-04T08:31:32;1.88;;;1.60;;
69981;SDS011;57319;56.274;43.980;2022-11-04T08:33:58;1.85;;;1.75;;
69981;SDS011;57319;56.274;43.980;2022-11-04T08:36:25;1.92;;;1.83;;
69981;SDS011;57319;56.274;43.980;2022-11-04T08:38:56;7.18;;;2.05;;
69981;SDS011;57319;56.274;43.980;2022-11-04T08:41:28;5.50;;;2.10;;
69981;SDS011;57319;56.274;43.980;2022-11-04T08:43:55;1.70;;;1.60;;
69981;SDS011;57319;56.274;43.980;2022-11-04T08:46:24;3.00;;;2.10;;
69981;SDS011;57319;56.274;43.980;2022-11-04T08:48:49;2.00;;;1.90;;
69981;SDS011;57319;56.274;43.980;2022-11-04T08:51:17;6.13;;;1.70;;
69981;SDS011;57319;56.274;43.980;2022-11-04T08:53:45;4.50;;;1.67;;
69981;SDS011;57319;56.274;43.980;2022-11-04T08:56:11;8.07;;;2.38;;
69981;SDS011;57319;56.274;43.980;2022-11-04T08:58:40;2.53;;;2.13;;
69981;SDS011;57319;56.274;43.980;2022-11-04T09:01:05;6.88;;;1.58;;
69981;SDS011;57319;56.274;43.980;2022-11-04T09:03:31;5.45;;;2.30;;
69981;SDS011;57319;56.274;43.980;2022-11-04T09:05:59;10.55;;;2.22;;
69981;SDS011;57319;56.274;43.980;2022-11-04T09:08:25;12.63;;;2.45;;
69981;SDS011;57319;56.274;43.980;2022-11-04T09:10:51;2.90;;;2.50;;
69981;SDS011;57319;56.274;43.980;2022-11-04T09:13:16;8.02;;;1.98;;
69981;SDS011;57319;56.274;43.980;2022-11-04T09:15:42;1.90;;;1.80;;
69981;SDS011;57319;56.274;43.980;2022-11-04T09:18:08;1.50;;;1.35;;
69981;SDS011;57319;56.274;43.980;2022-11-04T09:20:34;1.90;;;1.67;;
69981;SDS011;57319;56.274;43.980;2022-11-04T09:23:04;7.82;;;1.67;;
69981;SDS011;57319;56.274;43.980;2022-11-04T09:25:30;4.68;;;1.50;;
69981;SDS011;57319;56.274;43.980;2022-11-04T09:27:57;1.73;;;1.63;;
69981;SDS011;57319;56.274;43.980;2022-11-04T09:30:23;6.28;;;1.33;;
69981;SDS011;57319;56.274;43.980;2022-11-04T09:32:49;8.55;;;5.40;;
69981;SDS011;57319;56.274;43.980;2022-11-04T09:35:16;29.45;;;13.48;;
69981;SDS011;57319;56.274;43.980;2022-11-04T09:37:42;7.68;;;4.20;;
69981;SDS011;57319;56.274;43.980;2022-11-04T09:40:13;3.45;;;2.67;;
69981;SDS011;57319;56.274;43.980;2022-11-04T09:45:25;1.73;;;1.63;;
69981;SDS011;57319;56.274;43.980;2022-11-04T09:48:03;11.88;;;3.58;;
69981;SDS011;57319;56.274;43.980;2022-11-04T09:50:55;5.10;;;4.00;;
69981;SDS011;57319;56.274;43.980;2022-11-04T09:53:22;10.60;;;6.80;;
69981;SDS011;57319;56.274;43.980;2022-11-04T09:55:59;7.25;;;3.42;;
69981;SDS011;57319;56.274;43.980;2022-11-04T09:58:29;5.32;;;3.67;;
69981;SDS011;57319;56.274;43.980;2022-11-04T10:01:13;6.85;;;3.70;;
69981;SDS011;57319;56.274;43.980;2022-11-04T10:28:35;9.20;;;2.25;;
69981;SDS011;57319;56.274;43.980;2022-11-04T10:31:05;2.70;;;2.33;;
69981;SDS011;57319;56.274;43.980;2022-11-04T10:33:34;4.75;;;3.88;;
69981;SDS011;57319;56.274;43.980;2022-11-04T10:36:06;3.75;;;3.42;;
69981;SDS011;57319;56.274;43.980;2022-11-04T10:43:43;9.77;;;2.83;;
69981;SDS011;57319;56.274;43.980;2022-11-04T10:48:50;4.05;;;2.65;;
69981;SDS011;57319;56.274;43.980;2022-11-04T10:51:21;13.98;;;3.67;;
69981;SDS011;57319;56.274;43.980;2022-11-04T10:53:58;3.28;;;2.67;;
69981;SDS011;57319;56.274;43.980;2022-11-04T11:01:48;8.38;;;4.25;;
69981;SDS011;57319;56.274;43.980;2022-11-04T11:04:26;3.90;;;3.15;;
69981;SDS011;57319;56.274;43.980;2022-11-04T11:06:57;8.25;;;3.22;;
69981;SDS011;57319;56.274;43.980;2022-11-04T11:14:38;8.40;;;4.05;;
69981;SDS011;57319;56.274;43.980;2022-11-04T11:22:41;5.30;;;3.03;;
69981;SDS011;57319;56.274;43.980;2022-11-04T11:31:11;9.88;;;3.80;;
69981;SDS011;57319;56.274;43.980;2022-11-04T11:33:18;2.80;;;2.50;;
69981;SDS011;57319;56.274;43.980;2022-11-04T11:35:50;4.38;;;2.78;;
69981;SDS011;57319;56.274;43.980;2022-11-04T11:38:38;3.47;;;2.67;;
69981;SDS011;57319;56.274;43.980;2022-11-04T11:41:18;4.00;;;2.70;;
69981;SDS011;57319;56.274;43.980;2022-11-04T11:43:51;2.60;;;2.40;;
69981;SDS011;57319;56.274;43.980;2022-11-04T11:46:20;3.03;;;2.45;;
69981;SDS011;57319;56.274;43.980;2022-11-04T11:48:54;2.22;;;2.10;;
69981;SDS011;57319;56.274;43.980;2022-11-04T11:51:26;2.20;;;2.10;;
69981;SDS011;57319;56.274;43.980;2022-11-04T11:56:53;11.98;;;2.28;;
69981;SDS011;57319;56.274;43.980;2022-11-04T12:02:15;2.47;;;2.28;;
69981;SDS011;57319;56.274;43.980;2022-11-04T12:04:47;9.75;;;2.22;;
69981;SDS011;57319;56.274;43.980;2022-11-04T12:07:26;13.20;;;2.10;;
69981;SDS011;57319;56.274;43.980;2022-11-04T12:13:03;7.72;;;1.83;;
69981;SDS011;57319;56.274;43.980;2022-11-04T12:21:31;16.80;;;2.15;;
69981;SDS011;57319;56.274;43.980;2022-11-04T12:24:18;10.88;;;1.83;;
69981;SDS011;57319;56.274;43.980;2022-11-04T12:40:20;8.45;;;2.25;;
69981;SDS011;57319;56.274;43.980;2022-11-04T12:54:20;7.78;;;1.98;;
69981;SDS011;57319;56.274;43.980;2022-11-04T13:02:29;8.93;;;2.50;;
69981;SDS011;57319;56.274;43.980;2022-11-04T13:07:30;5.78;;;2.03;;
69981;SDS011;57319;56.274;43.980;2022-11-04T13:10:05;21.30;;;2.88;;
69981;SDS011;57319;56.274;43.980;2022-11-04T13:12:55;21.13;;;3.33;;
69981;SDS011;57319;56.274;43.980;2022-11-04T13:15:26;13.73;;;2.30;;
69981;SDS011;57319;56.274;43.980;2022-11-04T13:17:59;15.52;;;2.60;;
69981;SDS011;57319;56.274;43.980;2022-11-04T13:20:34;4.25;;;2.10;;
69981;SDS011;57319;56.274;43.980;2022-11-04T13:23:21;15.80;;;2.63;;
69981;SDS011;57319;56.274;43.980;2022-11-04T13:25:51;10.00;;;2.38;;
69981;SDS011;57319;56.274;43.980;2022-11-04T13:28:18;14.98;;;2.92;;
69981;SDS011;57319;56.274;43.980;2022-11-04T13:44:25;8.23;;;3.10;;
69981;SDS011;57319;56.274;43.980;2022-11-04T13:46:54;8.90;;;2.25;;
69981;SDS011;57319;56.274;43.980;2022-11-04T13:49:28;3.15;;;1.60;;
69981;SDS011;57319;56.274;43.980;2022-11-04T13:54:36;1.80;;;1.73;;
69981;SDS011;57319;56.274;43.980;2022-11-04T13:57:29;20.40;;;2.70;;
69981;SDS011;57319;56.274;43.980;2022-11-04T14:05:44;18.17;;;2.25;;
69981;SDS011;57319;56.274;43.980;2022-11-04T14:18:36;10.52;;;1.92;;
69981;SDS011;57319;56.274;43.980;2022-11-04T14:21:08;10.38;;;1.63;;
69981;SDS011;57319;56.274;43.980;2022-11-04T14:23:35;22.13;;;2.55;;
69981;SDS011;57319;56.274;43.980;2022-11-04T14:26:12;9.77;;;2.90;;
69981;SDS011;57319;56.274;43.980;2022-11-04T14:28:42;8.02;;;2.25;;
69981;SDS011;57319;56.274;43.980;2022-11-04T14:31:34;19.67;;;2.88;;
69981;SDS011;57319;56.274;43.980;2022-11-04T14:34:02;8.80;;;2.22;;
69981;SDS011;57319;56.274;43.980;2022-11-04T14:36:33;7.70;;;2.10;;
69981;SDS011;57319;56.274;43.980;2022-11-04T14:39:03;4.60;;;2.13;;
69981;SDS011;57319;56.274;43.980;2022-11-04T14:44:27;7.07;;;2.58;;
69981;SDS011;57319;56.274;43.980;2022-11-04T14:47:19;2.42;;;2.30;;
69981;SDS011;57319;56.274;43.980;2022-11-04T14:57:35;10.55;;;4.13;;
69981;SDS011;57319;56.274;43.980;2022-11-04T15:05:34;3.53;;;3.05;;
69981;SDS011;57319;56.274;43.980;2022-11-04T15:08:47;3.00;;;2.80;;
69981;SDS011;57319;56.274;43.980;2022-11-04T15:10:56;4.20;;;2.70;;
69981;SDS011;57319;56.274;43.980;2022-11-04T15:13:24;2.97;;;2.70;;
69981;SDS011;57319;56.274;43.980;2022-11-04T15:15:50;4.35;;;2.10;;
69981;SDS011;57319;56.274;43.980;2022-11-04T15:18:20;2.13;;;2.03;;
69981;SDS011;57319;56.274;43.980;2022-11-04T15:20:51;1.80;;;1.70;;
69981;SDS011;57319;56.274;43.980;2022-11-04T15:23:26;1.50;;;1.42;;
69981;SDS011;57319;56.274;43.980;2022-11-04T15:25:55;4.15;;;1.60;;
69981;SDS011;57319;56.274;43.980;2022-11-04T15:28:24;1.88;;;1.77;;
69981;SDS011;57319;56.274;43.980;2022-11-04T15:31:01;2.40;;;2.30;;
69981;SDS011;57319;56.274;43.980;2022-11-04T15:33:40;2.00;;;1.90;;
69981;SDS011;57319;56.274;43.980;2022-11-04T15:36:12;1.80;;;1.80;;
69981;SDS011;57319;56.274;43.980;2022-11-04T15:39:28;5.45;;;1.60;;
69981;SDS011;57319;56.274;43.980;2022-11-04T15:41:37;8.07;;;1.65;;
69981;SDS011;57319;56.274;43.980;2022-11-04T15:44:26;5.32;;;1.42;;
69981;SDS011;57319;56.274;43.980;2022-11-04T15:46:58;6.38;;;2.25;;
69981;SDS011;57319;56.274;43.980;2022-11-04T15:49:43;1.80;;;1.70;;
69981;SDS011;57319;56.274;43.980;2022-11-04T15:52:17;1.38;;;1.38;;
69981;SDS011;57319;56.274;43.980;2022-11-04T15:54:54;1.90;;;1.80;;
69981;SDS011;57319;56.274;43.980;2022-11-04T15:57:27;1.75;;;1.65;;
69981;SDS011;57319;56.274;43.980;2022-11-04T15:59:58;1.50;;;1.50;;
69981;SDS011;57319;56.274;43.980;2022-11-04T16:02:32;2.65;;;2.20;;
69981;SDS011;57319;56.274;43.980;2022-11-04T16:07:39;7.40;;;2.45;;
69981;SDS011;57319;56.274;43.980;2022-11-04T16:10:26;2.40;;;2.20;;
69981;SDS011;57319;56.274;43.980;2022-11-04T16:13:00;2.72;;;2.50;;
69981;SDS011;57319;56.274;43.980;2022-11-04T16:15:44;2.83;;;2.17;;
69981;SDS011;57319;56.274;43.980;2022-11-04T16:21:01;2.40;;;2.25;;
69981;SDS011;57319;56.274;43.980;2022-11-04T16:23:35;2.40;;;2.08;;
69981;SDS011;57319;56.274;43.980;2022-11-04T16:26:25;3.15;;;2.90;;
69981;SDS011;57319;56.274;43.980;2022-11-04T16:28:54;2.95;;;2.75;;
69981;SDS011;57319;56.274;43.980;2022-11-04T16:31:24;7.18;;;3.00;;
69981;SDS011;57319;56.274;43.980;2022-11-04T16:33:52;7.28;;;3.60;;
69981;SDS011;57319;56.274;43.980;2022-11-04T16:36:18;4.57;;;4.13;;
69981;SDS011;57319;56.274;43.980;2022-11-04T16:38:59;4.45;;;4.05;;
69981;SDS011;57319;56.274;43.980;2022-11-04T16:41:33;3.83;;;3.53;;
69981;SDS011;57319;56.274;43.980;2022-11-04T16:44:01;5.28;;;3.38;;
69981;SDS011;57319;56.274;43.980;2022-11-04T16:46:28;3.22;;;3.03;;
69981;SDS011;57319;56.274;43.980;2022-11-04T16:48:54;12.40;;;4.00;;
69981;SDS011;57319;56.274;43.980;2022-11-04T16:51:21;10.18;;;4.00;;
69981;SDS011;57319;56.274;43.980;2022-11-04T16:53:50;5.60;;;3.53;;
69981;SDS011;57319;56.274;43.980;2022-11-04T16:56:18;5.35;;;4.05;;
69981;SDS011;57319;56.274;43.980;2022-11-04T16:58:46;6.75;;;3.60;;
69981;SDS011;57319;56.274;43.980;2022-11-04T17:01:13;4.40;;;3.20;;
69981;SDS011;57319;56.274;43.980;2022-11-04T17:03:39;4.13;;;3.17;;
69981;SDS011;57319;56.274;43.980;2022-11-04T17:06:07;7.57;;;2.75;;
69981;SDS011;57319;56.274;43.980;2022-11-04T17:08:34;5.53;;;3.05;;
69981;SDS011;57319;56.274;43.980;2022-11-04T17:11:00;27.88;;;3.78;;
69981;SDS011;57319;56.274;43.980;2022-11-04T17:13:26;3.70;;;3.33;;
69981;SDS011;57319;56.274;43.980;2022-11-04T17:15:52;10.45;;;3.28;;
69981;SDS011;57319;56.274;43.980;2022-11-04T17:18:18;32.47;;;5.63;;
69981;SDS011;57319;56.274;43.980;2022-11-04T17:20:46;11.05;;;3.33;;
69981;SDS011;57319;56.274;43.980;2022-11-04T17:23:15;14.52;;;3.40;;
69981;SDS011;57319;56.274;43.980;2022-11-04T17:25:40;17.88;;;3.83;;
69981;SDS011;57319;56.274;43.980;2022-11-04T17:28:08;12.70;;;3.08;;
69981;SDS011;57319;56.274;43.980;2022-11-04T17:30:33;5.47;;;3.38;;
69981;SDS011;57319;56.274;43.980;2022-11-04T17:32:59;6.63;;;3.45;;
69981;SDS011;57319;56.274;43.980;2022-11-04T17:35:25;6.38;;;3.40;;
69981;SDS011;57319;56.274;43.980;2022-11-04T17:37:52;4.47;;;3.42;;
69981;SDS011;57319;56.274;43.980;2022-11-04T17:40:19;7.60;;;3.70;;
69981;SDS011;57319;56.274;43.980;2022-11-04T17:42:45;4.28;;;3.53;;
69981;SDS011;57319;56.274;43.980;2022-11-04T17:45:30;5.93;;;3.60;;
69981;SDS011;57319;56.274;43.980;2022-11-04T17:47:56;5.22;;;3.88;;
69981;SDS011;57319;56.274;43.980;2022-11-04T17:50:26;4.60;;;4.20;;
69981;SDS011;57319;56.274;43.980;2022-11-04T17:52:51;8.98;;;4.32;;
69981;SDS011;57319;56.274;43.980;2022-11-04T17:55:17;8.27;;;3.90;;
69981;SDS011;57319;56.274;43.980;2022-11-04T17:57:42;6.35;;;4.47;;
69981;SDS011;57319;56.274;43.980;2022-11-04T18:00:08;4.57;;;3.75;;
69981;SDS011;57319;56.274;43.980;2022-11-04T18:02:36;4.65;;;3.58;;
69981;SDS011;57319;56.274;43.980;2022-11-04T18:05:02;4.57;;;3.65;;